createdAt,value
2018-10-18T00:02:20.739Z,8.20
2018-10-18T00:04:50.528Z,8.73
2018-10-18T00:07:18.523Z,8.33
2018-10-18T00:09:46.489Z,8.13
2018-10-18T00:12:14.587Z,8.70
2018-10-18T00:14:42.507Z,8.17
2018-10-18T00:17:15.719Z,8.43
2018-10-18T00:19:44.706Z,8.17
2018-10-18T00:22:12.768Z,8.40
2018-10-18T00:24:40.668Z,8.50
2018-10-18T00:27:08.698Z,8.53
2018-10-18T00:29:36.819Z,8.83
2018-10-18T00:32:05.627Z,8.33
2018-10-18T00:34:33.564Z,9.07
2018-10-18T00:37:01.416Z,8.57
2018-10-18T00:39:29.496Z,8.93
2018-10-18T00:41:57.390Z,8.53
2018-10-18T00:44:25.287Z,8.77
2018-10-18T00:46:53.288Z,9.10
2018-10-18T00:49:21.178Z,8.30
2018-10-18T00:51:52.418Z,9.00
2018-10-18T00:54:20.351Z,9.00
2018-10-18T00:56:48.228Z,8.53
2018-10-18T00:59:16.201Z,9.50
2018-10-18T01:01:45.289Z,8.53
2018-10-18T01:04:13.289Z,9.07
2018-10-18T01:06:41.523Z,8.70
2018-10-18T01:09:10.755Z,9.20
2018-10-18T01:11:38.632Z,8.57
2018-10-18T01:14:06.650Z,9.07
2018-10-18T01:16:34.639Z,8.63
2018-10-18T01:19:02.788Z,8.67
2018-10-18T01:21:30.885Z,8.30
2018-10-18T01:23:58.915Z,8.80
2018-10-18T01:26:26.881Z,8.67
2018-10-18T01:28:54.906Z,7.40
2018-10-18T01:31:22.924Z,8.57
2018-10-18T01:33:50.908Z,7.83
2018-10-18T01:36:20.429Z,7.90
2018-10-18T01:38:48.506Z,8.00
2018-10-18T01:41:16.597Z,8.50
2018-10-18T01:43:44.596Z,8.40
2018-10-18T01:46:12.604Z,9.13
2018-10-18T01:48:40.604Z,8.37
2018-10-18T01:51:08.656Z,9.33
2018-10-18T01:53:36.674Z,9.33
2018-10-18T01:56:04.769Z,8.67
2018-10-18T01:58:32.750Z,8.70
2018-10-18T02:01:01.201Z,7.80
2018-10-18T02:03:29.294Z,9.80
2018-10-18T02:05:57.357Z,9.37
2018-10-18T02:08:25.548Z,9.00
2018-10-18T02:10:53.545Z,9.33
2018-10-18T02:13:21.491Z,9.07
2018-10-18T02:15:49.493Z,8.93
2018-10-18T02:18:17.596Z,8.87
2018-10-18T02:20:45.584Z,9.30
2018-10-18T02:23:13.601Z,8.87
2018-10-18T02:25:41.551Z,8.37
2018-10-18T02:28:09.545Z,8.77
2018-10-18T02:30:37.573Z,8.90
2018-10-18T02:33:05.583Z,9.77
2018-10-18T02:35:33.592Z,9.30
2018-10-18T02:38:01.587Z,8.83
2018-10-18T02:40:29.624Z,8.83
2018-10-18T02:42:57.643Z,8.83
2018-10-18T02:45:25.649Z,9.00
2018-10-18T02:47:53.669Z,9.30
2018-10-18T02:50:21.641Z,9.97
2018-10-18T02:55:47.483Z,9.53
2018-10-18T02:58:15.475Z,9.10
2018-10-18T03:00:43.481Z,9.30
2018-10-18T03:03:11.516Z,10.10
2018-10-18T03:05:39.428Z,9.70
2018-10-18T03:08:07.408Z,11.33
2018-10-18T03:10:36.669Z,10.10
2018-10-18T03:13:04.858Z,10.07
2018-10-18T03:15:32.878Z,9.43
2018-10-18T03:18:00.927Z,9.80
2018-10-18T03:20:28.904Z,9.77
2018-10-18T03:22:56.919Z,10.97
2018-10-18T03:25:24.914Z,9.27
2018-10-18T03:27:52.927Z,10.70
2018-10-18T03:30:20.912Z,10.57
2018-10-18T03:32:48.828Z,11.37
2018-10-18T03:35:23.504Z,10.60
2018-10-18T03:37:51.466Z,9.67
2018-10-18T03:40:19.451Z,9.83
2018-10-18T03:42:47.475Z,11.07
2018-10-18T03:45:15.456Z,9.90
2018-10-18T03:47:43.428Z,9.90
2018-10-18T03:50:11.439Z,9.67
2018-10-18T03:52:39.401Z,9.43
2018-10-18T03:55:07.508Z,9.30
2018-10-18T03:57:35.539Z,8.37
2018-10-18T04:00:03.659Z,9.57
2018-10-18T04:02:31.491Z,9.17
2018-10-18T04:04:59.500Z,9.77
2018-10-18T04:07:27.526Z,11.10
2018-10-18T04:09:55.543Z,10.00
2018-10-18T04:12:23.741Z,9.93
2018-10-18T04:14:51.562Z,9.23
2018-10-18T04:17:19.573Z,10.27
2018-10-18T04:19:47.575Z,10.07
2018-10-18T04:22:15.616Z,10.40
2018-10-18T04:24:43.650Z,10.10
2018-10-18T04:27:11.668Z,10.17
2018-10-18T04:29:39.632Z,10.20
2018-10-18T04:32:07.649Z,9.97
2018-10-18T04:34:35.693Z,9.73
2018-10-18T04:37:03.702Z,11.30
2018-10-18T04:39:31.695Z,12.60
2018-10-18T04:41:59.776Z,13.10
2018-10-18T04:44:27.702Z,13.33
2018-10-18T04:46:55.704Z,11.63
2018-10-18T04:49:23.714Z,9.70
2018-10-18T04:51:54.018Z,10.47
2018-10-18T04:54:21.956Z,10.37
2018-10-18T04:56:50.053Z,9.93
2018-10-18T04:59:17.924Z,11.37
2018-10-18T05:01:45.965Z,11.10
2018-10-18T05:04:13.967Z,11.13
2018-10-18T05:06:41.999Z,11.43
2018-10-18T05:09:10.016Z,10.43
2018-10-18T05:11:38.045Z,10.93
2018-10-18T05:14:06.023Z,11.17
2018-10-18T05:16:33.955Z,10.57
2018-10-18T05:19:01.940Z,9.80
2018-10-18T05:21:29.937Z,10.47
2018-10-18T05:23:57.960Z,10.50
2018-10-18T05:26:26.034Z,9.97
2018-10-18T05:29:56.741Z,10.30
2018-10-18T05:32:24.814Z,9.57
2018-10-18T05:34:52.820Z,10.87
2018-10-18T05:37:20.863Z,12.20
2018-10-18T05:39:48.871Z,11.77
2018-10-18T05:42:16.872Z,10.77
2018-10-18T05:44:44.996Z,10.43
2018-10-18T05:47:13.029Z,10.80
2018-10-18T05:49:40.960Z,10.13
2018-10-18T05:52:08.978Z,12.97
2018-10-18T05:54:36.981Z,11.10
2018-10-18T05:57:05.153Z,11.47
2018-10-18T05:59:33.215Z,10.63
2018-10-18T06:02:01.407Z,10.30
2018-10-18T06:04:29.691Z,11.07
2018-10-18T06:06:57.677Z,10.53
2018-10-18T06:09:32.908Z,10.83
2018-10-18T06:12:01.079Z,10.77
2018-10-18T06:14:29.553Z,9.53
2018-10-18T06:16:57.854Z,10.83
2018-10-18T06:19:26.896Z,10.77
2018-10-18T06:21:55.157Z,10.70
2018-10-18T06:24:23.342Z,10.47
2018-10-18T06:26:51.466Z,10.37
2018-10-18T06:29:19.587Z,10.67
2018-10-18T06:31:47.557Z,12.60
2018-10-18T06:34:15.636Z,11.13
2018-10-18T06:36:43.912Z,11.17
2018-10-18T06:39:12.517Z,11.80
2018-10-18T06:41:41.290Z,13.03
2018-10-18T06:44:10.204Z,14.17
2018-10-18T06:46:38.359Z,14.20
2018-10-18T06:49:06.753Z,13.30
2018-10-18T06:51:37.468Z,12.77
2018-10-18T06:54:05.702Z,12.67
2018-10-18T06:56:33.924Z,11.80
2018-10-18T06:59:02.083Z,13.20
2018-10-18T07:01:30.356Z,12.93
2018-10-18T07:03:58.407Z,12.67
2018-10-18T07:06:26.395Z,13.47
2018-10-18T07:08:54.662Z,13.73
2018-10-18T07:11:22.635Z,15.03
2018-10-18T07:13:50.703Z,16.57
2018-10-18T07:16:18.754Z,18.13
2018-10-18T07:18:46.862Z,19.67
2018-10-18T07:21:14.832Z,20.33
2018-10-18T07:23:42.915Z,19.87
2018-10-18T07:26:10.893Z,18.00
2018-10-18T07:28:38.852Z,18.53
2018-10-18T07:31:06.796Z,20.90
2018-10-18T07:33:34.731Z,23.23
2018-10-18T07:36:02.771Z,24.87
2018-10-18T07:38:30.719Z,24.63
2018-10-18T07:40:58.707Z,25.83
2018-10-18T07:43:26.599Z,27.63
2018-10-18T07:45:54.538Z,28.33
2018-10-18T07:48:22.514Z,30.67
2018-10-18T07:50:50.450Z,31.23
2018-10-18T07:53:18.583Z,32.97
2018-10-18T07:55:46.387Z,32.73
2018-10-18T07:58:14.383Z,32.43
2018-10-18T08:00:42.435Z,32.77
2018-10-18T08:03:10.315Z,31.03
2018-10-18T08:05:38.336Z,32.27
2018-10-18T08:08:06.303Z,32.80
2018-10-18T08:10:34.358Z,31.70
2018-10-18T08:13:02.400Z,32.87
2018-10-18T08:15:30.381Z,33.27
2018-10-18T08:17:58.323Z,32.40
2018-10-18T08:20:26.287Z,32.37
2018-10-18T08:22:54.223Z,32.47
2018-10-18T08:25:22.209Z,32.57
2018-10-18T08:27:50.276Z,33.10
2018-10-18T08:30:18.307Z,33.93
2018-10-18T08:32:46.346Z,32.57
2018-10-18T08:35:14.387Z,33.13
2018-10-18T08:40:16.642Z,32.80
2018-10-18T08:42:44.604Z,33.33
2018-10-18T08:45:12.591Z,33.27
2018-10-18T08:47:40.641Z,30.47
2018-10-18T08:50:10.136Z,32.47
2018-10-18T08:52:38.297Z,30.57
2018-10-18T08:55:07.240Z,31.60
2018-10-18T08:57:42.231Z,29.87
2018-10-18T09:00:11.547Z,29.17
2018-10-18T09:02:40.433Z,29.40
2018-10-18T09:05:08.787Z,27.90
2018-10-18T09:07:37.283Z,28.00
2018-10-18T09:10:06.171Z,28.57
2018-10-18T09:12:34.467Z,25.77
2018-10-18T09:15:02.663Z,26.60
2018-10-18T09:17:30.836Z,26.77
2018-10-18T09:20:05.497Z,24.70
2018-10-18T09:22:35.639Z,24.40
2018-10-18T09:25:03.898Z,24.00
2018-10-18T09:27:32.067Z,24.03
2018-10-18T09:30:00.202Z,21.60
2018-10-18T09:32:28.353Z,20.80
2018-10-18T09:34:56.480Z,20.00
2018-10-18T09:37:24.856Z,19.00
2018-10-18T09:39:52.953Z,20.03
2018-10-18T09:42:21.131Z,20.17
2018-10-18T09:44:49.386Z,20.23
2018-10-18T09:47:17.551Z,20.83
2018-10-18T09:49:45.763Z,20.03
2018-10-18T09:52:14.050Z,20.93
2018-10-18T09:54:42.309Z,19.90
2018-10-18T09:57:10.510Z,20.37
2018-10-18T09:59:38.758Z,20.63
2018-10-18T10:02:12.259Z,20.63
2018-10-18T10:04:40.526Z,20.00
2018-10-18T10:07:08.873Z,20.80
2018-10-18T10:09:37.845Z,20.83
2018-10-18T10:12:06.047Z,20.63
2018-10-18T10:14:34.190Z,19.33
2018-10-18T10:17:02.404Z,20.57
2018-10-18T10:19:30.572Z,20.73
2018-10-18T10:21:58.699Z,19.07
2018-10-18T10:24:26.957Z,20.07
2018-10-18T10:26:55.122Z,20.30
2018-10-18T10:29:23.275Z,20.80
2018-10-18T10:31:51.484Z,20.60
2018-10-18T10:34:19.655Z,19.13
2018-10-18T10:36:47.976Z,19.47
2018-10-18T10:39:16.204Z,20.60
2018-10-18T10:41:44.447Z,20.00
2018-10-18T10:44:12.557Z,19.97
2018-10-18T10:46:41.185Z,20.10
2018-10-18T10:49:09.904Z,20.03
2018-10-18T10:51:40.639Z,19.03
2018-10-18T10:54:09.644Z,19.57
2018-10-18T10:56:37.818Z,20.60
2018-10-18T10:59:11.021Z,19.23
2018-10-18T11:01:39.266Z,19.20
2018-10-18T11:04:07.449Z,19.17
2018-10-18T11:06:35.793Z,17.40
2018-10-18T11:09:04.658Z,19.10
2018-10-18T11:11:32.710Z,19.20
2018-10-18T11:14:00.994Z,19.57
2018-10-18T11:16:29.234Z,17.43
2018-10-18T11:18:57.407Z,18.70
2018-10-18T11:21:25.626Z,18.27
2018-10-18T11:23:53.891Z,17.87
2018-10-18T11:26:22.046Z,17.13
2018-10-18T11:28:50.231Z,17.67
2018-10-18T11:31:18.705Z,18.03
2018-10-18T11:33:46.828Z,17.33
2018-10-18T11:36:14.874Z,18.50
2018-10-18T11:38:42.747Z,18.40
2018-10-18T11:41:10.745Z,15.83
2018-10-18T11:43:38.762Z,16.63
2018-10-18T11:46:06.731Z,16.40
2018-10-18T11:48:34.745Z,16.70
2018-10-18T11:51:02.721Z,16.57
2018-10-18T11:53:30.695Z,16.10
2018-10-18T11:55:58.674Z,15.27
2018-10-18T11:58:26.561Z,15.33
2018-10-18T12:00:54.511Z,15.37
2018-10-18T12:03:22.534Z,16.80
2018-10-18T12:05:50.520Z,14.73
2018-10-18T12:08:18.592Z,14.57
2018-10-18T12:10:46.480Z,16.00
2018-10-18T12:13:14.407Z,16.03
2018-10-18T12:15:42.386Z,15.63
2018-10-18T12:18:10.364Z,16.80
2018-10-18T12:20:38.331Z,16.53
2018-10-18T12:23:06.399Z,16.63
2018-10-18T12:25:34.299Z,16.57
2018-10-18T12:28:02.396Z,17.17
2018-10-18T12:30:30.392Z,17.73
2018-10-18T12:32:58.337Z,17.00
2018-10-18T12:35:26.311Z,17.70
2018-10-18T12:37:54.278Z,16.47
2018-10-18T12:40:22.283Z,18.03
2018-10-18T12:42:51.063Z,17.43
2018-10-18T12:45:19.041Z,18.40
2018-10-18T12:47:46.973Z,17.80
2018-10-18T12:50:15.051Z,18.73
2018-10-18T12:52:42.956Z,18.83
2018-10-18T12:55:10.931Z,21.17
2018-10-18T12:57:38.886Z,20.77
2018-10-18T13:00:07.892Z,20.03
2018-10-18T13:02:36.008Z,20.63
2018-10-18T13:05:04.392Z,19.53
2018-10-18T13:07:32.413Z,21.90
2018-10-18T13:10:00.511Z,22.20
2018-10-18T13:12:28.582Z,20.10
2018-10-18T13:14:56.511Z,20.40
2018-10-18T13:17:24.463Z,20.07
2018-10-18T13:19:52.463Z,20.63
2018-10-18T13:22:20.412Z,19.13
2018-10-18T13:24:48.511Z,19.67
2018-10-18T13:27:16.523Z,19.73
2018-10-18T13:29:44.540Z,19.47
2018-10-18T13:32:12.608Z,18.77
2018-10-18T13:34:40.482Z,18.80
2018-10-18T13:37:08.440Z,19.40
2018-10-18T13:39:36.556Z,18.87
2018-10-18T13:42:05.021Z,17.37
2018-10-18T13:44:32.912Z,19.70
2018-10-18T13:47:00.901Z,18.63
2018-10-18T13:49:28.927Z,18.90
2018-10-18T13:51:56.938Z,19.43
2018-10-18T13:54:24.869Z,18.67
2018-10-18T13:56:52.852Z,18.57
2018-10-18T13:59:26.636Z,19.00
2018-10-18T14:01:54.453Z,19.60
2018-10-18T14:04:22.396Z,19.60
2018-10-18T14:06:50.361Z,19.63
2018-10-18T14:09:18.339Z,21.20
2018-10-18T14:11:46.295Z,18.23
2018-10-18T14:14:14.418Z,17.70
2018-10-18T14:16:42.308Z,18.27
2018-10-18T14:19:10.208Z,16.87
2018-10-18T14:21:38.295Z,17.40
2018-10-18T14:24:06.267Z,16.07
2018-10-18T14:26:34.308Z,16.70
2018-10-18T14:29:02.301Z,15.93
2018-10-18T14:31:30.319Z,16.73
2018-10-18T14:33:58.299Z,17.80
2018-10-18T14:36:26.270Z,17.33
2018-10-18T14:38:54.342Z,17.90
2018-10-18T14:41:22.167Z,17.07
2018-10-18T14:43:50.183Z,16.53
2018-10-18T14:46:18.985Z,17.47
2018-10-18T14:48:46.886Z,15.90
2018-10-18T14:51:14.873Z,16.70
2018-10-18T14:53:42.862Z,16.53
2018-10-18T14:56:10.970Z,16.50
2018-10-18T14:58:38.892Z,16.87
2018-10-18T15:01:06.987Z,17.73
2018-10-18T15:03:36.521Z,16.93
2018-10-18T15:06:04.554Z,17.53
2018-10-18T15:08:32.623Z,16.57
2018-10-18T15:11:00.623Z,17.10
2018-10-18T15:13:28.565Z,14.70
2018-10-18T15:15:56.521Z,16.80
2018-10-18T15:18:24.503Z,17.40
2018-10-18T15:20:52.464Z,16.63
2018-10-18T15:23:20.455Z,17.30
2018-10-18T15:25:48.567Z,17.83
2018-10-18T15:28:16.384Z,16.43
2018-10-18T15:30:44.407Z,17.43
2018-10-18T15:33:12.438Z,18.63
2018-10-18T15:35:40.330Z,17.87
2018-10-18T15:38:08.654Z,20.40
2018-10-18T15:40:36.522Z,18.90
2018-10-18T15:43:04.736Z,18.47
2018-10-18T15:45:32.696Z,17.77
2018-10-18T15:48:00.695Z,17.80
2018-10-18T15:50:29.071Z,16.30
2018-10-18T15:52:57.106Z,18.40
2018-10-18T15:55:25.011Z,16.90
2018-10-18T15:57:53.011Z,17.87
2018-10-18T16:00:21.065Z,25.93
2018-10-18T16:02:48.943Z,19.33
2018-10-18T16:05:17.048Z,17.67
2018-10-18T16:07:45.061Z,18.17
2018-10-18T16:10:13.079Z,16.60
2018-10-18T16:12:41.023Z,17.57
2018-10-18T16:15:10.111Z,18.47
2018-10-18T16:17:38.293Z,16.30
2018-10-18T16:20:06.983Z,17.30
2018-10-18T16:22:34.922Z,16.43
2018-10-18T16:25:02.930Z,15.23
2018-10-18T16:27:30.915Z,16.40
2018-10-18T16:29:59.274Z,15.23
2018-10-18T16:32:27.377Z,15.60
2018-10-18T16:34:55.483Z,15.83
2018-10-18T16:37:23.392Z,16.37
2018-10-18T16:39:51.369Z,15.73
2018-10-18T16:42:19.362Z,16.60
2018-10-18T16:44:47.319Z,15.90
2018-10-18T16:47:15.243Z,15.47
2018-10-18T16:49:43.417Z,15.13
2018-10-18T16:52:11.462Z,16.23
2018-10-18T16:54:39.680Z,16.50
2018-10-18T16:57:08.037Z,15.67
2018-10-18T16:59:36.083Z,15.83
2018-10-18T17:02:04.260Z,17.43
2018-10-18T17:04:32.338Z,17.13
2018-10-18T17:07:00.275Z,15.83
2018-10-18T17:09:28.748Z,17.97
2018-10-18T17:11:56.792Z,16.37
2018-10-18T17:14:24.780Z,17.33
2018-10-18T17:16:52.800Z,16.67
2018-10-18T17:19:20.876Z,16.13
2018-10-18T17:21:48.867Z,16.97
2018-10-18T17:24:17.381Z,16.13
2018-10-18T17:26:46.565Z,15.97
2018-10-18T17:29:14.611Z,16.53
2018-10-18T17:31:43.533Z,16.60
2018-10-18T17:34:11.682Z,16.10
2018-10-18T17:36:39.725Z,16.13
2018-10-18T17:39:08.127Z,15.70
2018-10-18T17:41:36.339Z,15.63
2018-10-18T17:44:05.048Z,16.87
2018-10-18T17:46:33.406Z,17.37
2018-10-18T17:49:01.583Z,17.67
2018-10-18T17:51:31.961Z,19.57
2018-10-18T17:54:00.080Z,16.13
2018-10-18T17:56:28.316Z,18.13
2018-10-18T17:58:56.492Z,16.90
2018-10-18T18:01:24.602Z,17.27
2018-10-18T18:03:52.773Z,18.47
2018-10-18T18:06:21.071Z,17.73
2018-10-18T18:08:49.230Z,17.30
2018-10-18T18:11:17.420Z,16.73
2018-10-18T18:13:45.579Z,16.90
2018-10-18T18:16:13.752Z,16.83
2018-10-18T18:18:43.463Z,15.80
2018-10-18T18:21:11.719Z,19.83
2018-10-18T18:23:40.117Z,16.70
2018-10-18T18:26:08.388Z,17.10
2018-10-18T18:28:36.345Z,16.40
2018-10-18T18:31:04.358Z,16.93
2018-10-18T18:33:32.401Z,15.57
2018-10-18T18:36:00.477Z,16.13
2018-10-18T18:38:28.533Z,15.60
2018-10-18T18:40:56.508Z,16.50
2018-10-18T18:43:24.467Z,15.73
2018-10-18T18:45:52.728Z,15.10
2018-10-18T18:48:20.887Z,16.03
2018-10-18T18:50:49.150Z,15.67
2018-10-18T18:53:17.427Z,15.90
2018-10-18T18:55:45.423Z,15.57
2018-10-18T18:58:13.913Z,16.50
2018-10-18T19:00:42.018Z,15.87
2018-10-18T19:03:10.164Z,16.67
2018-10-18T19:05:38.140Z,16.10
2018-10-18T19:08:06.219Z,16.93
2018-10-18T19:10:34.489Z,16.10
2018-10-18T19:13:02.561Z,16.53
2018-10-18T19:15:30.515Z,16.53
2018-10-18T19:17:58.694Z,16.57
2018-10-18T19:20:26.743Z,17.10
2018-10-18T19:22:54.900Z,40.77
2018-10-18T19:25:23.016Z,16.77
2018-10-18T19:27:50.993Z,16.03
2018-10-18T19:30:19.135Z,16.53
2018-10-18T19:32:47.207Z,16.40
2018-10-18T19:35:15.299Z,15.70
2018-10-18T19:37:43.272Z,16.37
2018-10-18T19:40:11.435Z,15.57
2018-10-18T19:42:40.690Z,16.43
2018-10-18T19:45:09.427Z,14.37
2018-10-18T19:47:37.819Z,16.13
2018-10-18T19:50:06.319Z,16.03
2018-10-18T19:52:34.583Z,14.37
2018-10-18T19:55:02.839Z,15.13
2018-10-18T19:57:30.809Z,14.80
2018-10-18T19:59:58.795Z,13.40
2018-10-18T20:02:26.827Z,13.50
2018-10-18T20:04:54.876Z,13.67
2018-10-18T20:07:22.908Z,11.77
2018-10-18T20:09:50.840Z,12.40
2018-10-18T20:12:18.797Z,12.47
2018-10-18T20:14:46.794Z,11.70
2018-10-18T20:17:14.758Z,10.73
2018-10-18T20:19:42.726Z,10.30
2018-10-18T20:22:12.340Z,10.57
2018-10-18T20:24:40.492Z,9.90
2018-10-18T20:27:09.174Z,10.07
2018-10-18T20:29:37.235Z,8.70
2018-10-18T20:32:05.461Z,8.97
2018-10-18T20:34:33.608Z,9.00
2018-10-18T20:37:01.587Z,9.17
2018-10-18T20:39:29.953Z,8.87
2018-10-18T20:41:57.924Z,8.37
2018-10-18T20:44:26.003Z,8.53
2018-10-18T20:46:53.998Z,8.00
2018-10-18T20:49:22.042Z,7.60
2018-10-18T20:51:50.024Z,7.37
2018-10-18T20:54:18.092Z,7.20
2018-10-18T20:56:46.059Z,6.53
2018-10-18T20:59:14.230Z,6.87
2018-10-18T21:01:47.935Z,6.70
2018-10-18T21:04:16.067Z,6.67
2018-10-18T21:06:44.210Z,6.70
2018-10-18T21:09:12.070Z,7.13
2018-10-18T21:11:40.021Z,7.00
2018-10-18T21:14:08.384Z,6.20
2018-10-18T21:16:36.349Z,5.97
2018-10-18T21:19:04.429Z,5.97
2018-10-18T21:21:32.807Z,5.80
2018-10-18T21:24:00.867Z,4.80
2018-10-18T21:26:28.854Z,4.43
2018-10-18T21:28:56.952Z,4.50
2018-10-18T21:31:24.897Z,4.17
2018-10-18T21:33:53.027Z,4.30
2018-10-18T21:36:20.941Z,4.23
2018-10-18T21:38:48.997Z,3.57
2018-10-18T21:41:16.944Z,4.30
2018-10-18T21:43:46.474Z,3.80
2018-10-18T21:46:14.441Z,3.13
2018-10-18T21:48:42.664Z,3.93
2018-10-18T21:51:13.191Z,3.50
2018-10-18T21:53:41.408Z,3.17
2018-10-18T21:56:09.603Z,3.77
2018-10-18T21:58:37.674Z,3.70
2018-10-18T22:01:05.740Z,4.03
2018-10-18T22:03:33.796Z,3.63
2018-10-18T22:06:01.895Z,3.90
2018-10-18T22:08:30.038Z,3.83
2018-10-18T22:10:57.993Z,3.77
2018-10-18T22:13:26.001Z,3.33
2018-10-18T22:15:53.966Z,3.67
2018-10-18T22:18:22.024Z,3.47
2018-10-18T22:20:50.099Z,3.47
2018-10-18T22:23:18.174Z,2.90
2018-10-18T22:25:46.156Z,3.30
2018-10-18T22:28:14.126Z,3.10
2018-10-18T22:30:42.088Z,3.17
2018-10-18T22:33:10.141Z,3.07
2018-10-18T22:35:38.009Z,3.00
2018-10-18T22:38:06.091Z,3.00
2018-10-18T22:40:34.152Z,3.30
2018-10-18T22:43:02.136Z,3.00
2018-10-18T22:45:30.089Z,3.37
2018-10-18T22:47:58.084Z,3.80
2018-10-18T22:50:26.032Z,3.37
2018-10-18T22:52:54.058Z,3.33
2018-10-18T22:55:21.973Z,3.77
2018-10-18T22:57:49.941Z,3.57
2018-10-18T23:00:17.911Z,3.37
2018-10-18T23:02:45.835Z,4.00
2018-10-18T23:05:13.805Z,3.77
2018-10-18T23:07:41.787Z,3.57
2018-10-18T23:10:09.780Z,3.53
2018-10-18T23:12:37.960Z,3.97
2018-10-18T23:15:07.311Z,3.80
2018-10-18T23:17:35.223Z,3.70
2018-10-18T23:20:03.403Z,4.13
2018-10-18T23:22:31.364Z,3.77
2018-10-18T23:24:59.340Z,4.67
2018-10-18T23:27:30.625Z,4.77
2018-10-18T23:29:58.560Z,4.33
2018-10-18T23:32:29.530Z,4.23
2018-10-18T23:34:57.510Z,4.97
2018-10-18T23:37:25.442Z,4.60
2018-10-18T23:39:53.407Z,4.60
2018-10-18T23:42:21.371Z,4.90
2018-10-18T23:44:49.239Z,4.63
2018-10-18T23:47:17.216Z,5.07
2018-10-18T23:49:45.164Z,5.23
2018-10-18T23:52:13.133Z,5.37
2018-10-18T23:54:41.141Z,5.40
2018-10-18T23:57:09.233Z,5.53
2018-10-18T23:59:37.476Z,5.63
